Detall de PIREP

Printer-friendly versionPDF version

[2011/06/08 17:13:00]
Flight IATA:CT2106
Pilot Number:042
Company ICAO:CAT
Aircraft Type:F100/A
PAX:20
Aircraft Registration:PFJ
Departing Airport: LEVC
Destination Airport: LEMD
Alternate Airport:LEMG
Online: VATSIM
Route:CENTA A33 PRADO
Flight Level:F210
No Slew and time accel
No pause
Crash detect
Detect pilot in Cockpit between each 30 and 45 minutes
17:13 Zero fuel Weight: 81825 Lbs, Fuel Weight: 22665 Lbs
17:13 VATSIM:LEVC 081700Z 12008KT 090V160 9999 FEW025TCU 23/16 Q1013 NOSIG
17:13 VATSIM:LEMD 081700Z 27005KT 220V310 9999 FEW048 SCT070 22/06 Q1014 NOSIG
17:14 VOICE CATALONIAN
17:15 Parking Brakes off
17:19 Take-off
17:19 Take off Weight: 104094 Lbs
17:19 Wind: 112 @ 008 Knots Heading: 116
17:19 POS N39 29 20 W000 28 51
17:19 Gear Up: 175 Knots
17:19 Flaps:2 at 175 Knots
17:20 Flaps:1 at 171 Knots
17:21 Flaps:0 at 190 Knots
17:29 TOC
17:29 Fuel Weight: 20715 Lb
17:34 Wind:296@028 Knots Heading: 299 Ground Speed: 401 Knots Altitude 21026 ft
17:39 TOD
17:39 Fuel Weight: 19732 Lb
17:49 Wind:274@007 Knots Heading: 310 Ground Speed: 336 Knots Altitude 10009 ft
17:54 Flaps:1 at 195 Knots
17:55 Flaps:2 at 189 Knots
17:58 Gear Down: 163 Knots
17:58 Flaps:3 at 162 Knots
17:58 Flaps:4 at 158 Knots
17:59 Flaps:3 at 155 Knots
18:01 TouchDown:Rate -102 ft/min Speed: 147 Knots
18:01 VATSIM:LEMD 081730Z 24004KT 9999 FEW048 SCT070 22/06 Q1014 NOSIG
18:01 Land
18:01 Wind:244@004 Knots
18:01 Heading: 182
18:01 Flight Duration: 00:42
18:01 Landing Weight: 100190 Lbs
18:01 POS N40 30 43 W003 33 33
18:09 Parking brakes on
18:09 Block to Block Duration: 00:54
18:09 Final Fuel: 18097 Lbls
18:09 Spent Fuel: 4567 Lbls
18:09 Flight Length: 183 NM
18:09 TOD Land Length: 67 NM

Exportar CSV

Powered by Drupal - Modified by Danger4k